createdAt,value
2017-09-20T00:01:57.048Z,7.73
2017-09-20T00:04:24.595Z,7.33
2017-09-20T00:06:52.114Z,7.10
2017-09-20T00:09:19.672Z,1.07
2017-09-20T00:11:47.963Z,0.60
2017-09-20T00:14:15.849Z,0.60
2017-09-20T00:16:43.396Z,1.07
2017-09-20T00:19:11.700Z,0.70
2017-09-20T00:21:39.255Z,1.40
2017-09-20T00:24:06.808Z,0.60
2017-09-20T00:26:34.686Z,0.63
2017-09-20T00:29:02.220Z,0.60
2017-09-20T00:31:29.739Z,0.67
2017-09-20T00:33:57.285Z,6.97
2017-09-20T00:36:24.815Z,7.10
2017-09-20T00:38:54.211Z,8.37
2017-09-20T00:41:21.745Z,8.33
2017-09-20T00:43:50.036Z,9.63
2017-09-20T00:46:17.587Z,9.93
2017-09-20T00:48:45.147Z,9.13
2017-09-20T00:51:12.978Z,10.37
2017-09-20T00:53:40.504Z,9.17
2017-09-20T00:56:08.070Z,9.50
2017-09-20T00:58:35.625Z,9.27
2017-09-20T01:01:03.148Z,8.97
2017-09-20T01:03:31.787Z,9.03
2017-09-20T01:05:59.317Z,8.87
2017-09-20T01:08:27.599Z,8.17
2017-09-20T01:10:55.148Z,8.33
2017-09-20T01:13:22.675Z,8.30
2017-09-20T01:15:50.514Z,8.17
2017-09-20T01:18:18.036Z,9.07
2017-09-20T01:20:57.821Z,8.03
2017-09-20T01:23:44.284Z,8.47
2017-09-20T01:26:12.180Z,7.20
2017-09-20T01:28:39.707Z,8.40
2017-09-20T01:31:07.992Z,8.70
2017-09-20T01:33:35.551Z,8.17
2017-09-20T01:36:03.083Z,10.23
2017-09-20T01:38:31.700Z,9.30
2017-09-20T01:40:59.262Z,9.03
2017-09-20T01:43:26.780Z,8.40
2017-09-20T01:45:54.314Z,9.13
2017-09-20T01:48:21.874Z,7.90
2017-09-20T01:50:49.720Z,8.30
2017-09-20T01:53:17.234Z,8.33
2017-09-20T01:55:45.533Z,9.00
2017-09-20T01:58:14.586Z,7.90
2017-09-20T02:00:42.110Z,7.77
2017-09-20T02:03:09.984Z,7.50
2017-09-20T02:05:37.731Z,8.97
2017-09-20T02:08:05.248Z,8.20
2017-09-20T02:10:32.797Z,8.50
2017-09-20T02:13:00.310Z,7.17
2017-09-20T02:15:28.207Z,7.57
2017-09-20T02:17:55.709Z,8.30
2017-09-20T02:20:23.256Z,8.30
2017-09-20T02:22:50.804Z,7.77
2017-09-20T02:25:18.338Z,8.40
2017-09-20T02:27:46.239Z,9.63
2017-09-20T02:30:13.764Z,9.10
2017-09-20T02:32:41.289Z,9.40
2017-09-20T02:35:09.609Z,8.97
2017-09-20T02:37:37.125Z,9.00
2017-09-20T02:40:05.765Z,10.30
2017-09-20T02:42:33.292Z,9.70
2017-09-20T02:45:00.818Z,8.30
2017-09-20T02:47:29.148Z,8.17
2017-09-20T02:49:56.660Z,8.30
2017-09-20T02:52:24.591Z,10.00
2017-09-20T02:54:52.115Z,9.50
2017-09-20T02:57:19.644Z,9.80
2017-09-20T02:59:48.042Z,10.97
2017-09-20T03:02:16.333Z,11.47
2017-09-20T03:04:44.220Z,9.83
2017-09-20T03:07:11.773Z,8.57
2017-09-20T03:09:39.287Z,9.27
2017-09-20T03:12:06.838Z,10.03
2017-09-20T03:14:34.380Z,9.87
2017-09-20T03:17:02.326Z,9.30
2017-09-20T03:19:29.929Z,10.37
2017-09-20T03:21:57.497Z,9.70
2017-09-20T03:24:25.810Z,9.63
2017-09-20T03:26:54.267Z,9.70
2017-09-20T03:29:22.897Z,9.43
2017-09-20T03:31:50.429Z,10.50
2017-09-20T03:34:18.731Z,9.23
2017-09-20T03:36:46.271Z,8.90
2017-09-20T03:39:13.807Z,9.77
2017-09-20T03:41:41.832Z,9.10
2017-09-20T03:44:09.367Z,11.20
2017-09-20T03:46:36.874Z,9.13
2017-09-20T03:49:04.429Z,9.00
2017-09-20T03:51:31.984Z,10.23
2017-09-20T03:53:59.840Z,9.37
2017-09-20T03:56:27.370Z,9.83
2017-09-20T03:58:54.907Z,9.23
2017-09-20T04:01:22.463Z,9.60
2017-09-20T04:03:49.991Z,11.33
2017-09-20T04:06:17.830Z,10.20
2017-09-20T04:08:45.342Z,10.20
2017-09-20T04:11:12.860Z,9.90
2017-09-20T04:13:40.427Z,9.67
2017-09-20T04:16:07.969Z,10.03
2017-09-20T04:18:35.854Z,9.30
2017-09-20T04:21:03.366Z,9.10
2017-09-20T04:23:31.656Z,11.90
2017-09-20T04:25:59.210Z,9.73
2017-09-20T04:28:27.500Z,9.57
2017-09-20T04:30:55.400Z,11.13
2017-09-20T04:33:23.861Z,9.97
2017-09-20T04:35:51.422Z,9.37
2017-09-20T04:38:18.963Z,9.90
2017-09-20T04:40:47.251Z,10.50
2017-09-20T04:43:15.066Z,10.10
2017-09-20T04:45:42.578Z,10.80
2017-09-20T04:48:10.129Z,10.87
2017-09-20T04:50:37.688Z,10.80
2017-09-20T04:53:05.223Z,11.77
2017-09-20T04:55:33.153Z,12.03
2017-09-20T04:58:00.679Z,12.53
2017-09-20T05:00:28.959Z,13.90
2017-09-20T05:02:57.282Z,13.90
2017-09-20T05:05:24.838Z,15.40
2017-09-20T05:07:52.667Z,13.40
2017-09-20T05:10:21.072Z,14.83
2017-09-20T05:12:49.858Z,13.97
2017-09-20T05:15:17.468Z,15.33
2017-09-20T05:17:44.994Z,15.03
2017-09-20T05:20:12.884Z,14.67
2017-09-20T05:22:40.417Z,15.40
2017-09-20T05:25:08.604Z,16.40
2017-09-20T05:27:36.153Z,16.57
2017-09-20T05:30:03.699Z,16.13
2017-09-20T05:32:31.591Z,12.90
2017-09-20T05:34:59.152Z,13.83
2017-09-20T05:37:26.681Z,12.90
2017-09-20T05:39:54.235Z,14.70
2017-09-20T05:42:21.787Z,12.73
2017-09-20T05:44:50.349Z,13.50
2017-09-20T05:47:17.870Z,12.27
2017-09-20T05:49:45.451Z,13.13
2017-09-20T05:52:13.000Z,14.00
2017-09-20T05:54:40.521Z,12.10
2017-09-20T05:57:08.449Z,12.77
2017-09-20T05:59:35.974Z,13.33
2017-09-20T06:02:03.549Z,12.90
2017-09-20T06:04:31.103Z,13.50
2017-09-20T06:06:58.665Z,12.70
2017-09-20T06:09:26.468Z,14.27
2017-09-20T06:11:53.994Z,15.33
2017-09-20T06:14:21.535Z,12.30
2017-09-20T06:16:49.100Z,13.90
2017-09-20T06:19:16.668Z,12.60
2017-09-20T06:21:44.595Z,12.70
2017-09-20T06:24:13.007Z,11.23
2017-09-20T06:26:40.533Z,13.00
2017-09-20T06:29:08.084Z,13.07
2017-09-20T06:31:35.625Z,14.27
2017-09-20T06:34:03.468Z,13.37
2017-09-20T06:36:31.773Z,15.43
2017-09-20T06:38:59.303Z,15.00
2017-09-20T06:41:26.867Z,14.77
2017-09-20T06:43:54.388Z,15.63
2017-09-20T06:46:23.101Z,16.20
2017-09-20T06:48:50.624Z,14.50
2017-09-20T06:51:18.919Z,15.37
2017-09-20T06:53:46.480Z,15.90
2017-09-20T06:56:14.780Z,15.80
2017-09-20T06:58:42.592Z,15.30
2017-09-20T07:01:10.125Z,16.90
2017-09-20T07:03:37.648Z,16.97
2017-09-20T07:06:05.192Z,17.20
2017-09-20T07:08:33.482Z,17.10
2017-09-20T07:11:01.387Z,17.40
2017-09-20T07:13:28.923Z,17.90
2017-09-20T07:15:56.444Z,19.70
2017-09-20T07:18:24.065Z,19.77
2017-09-20T07:20:51.617Z,19.23
2017-09-20T07:23:19.487Z,27.87
2017-09-20T07:25:47.013Z,23.03
2017-09-20T07:28:15.300Z,21.57
2017-09-20T07:30:42.848Z,21.37
2017-09-20T07:33:11.707Z,22.33
2017-09-20T07:35:40.323Z,20.50
2017-09-20T07:38:07.855Z,22.93
2017-09-20T07:40:35.383Z,23.53
2017-09-20T07:43:02.965Z,22.87
2017-09-20T07:45:30.498Z,22.23
2017-09-20T07:47:58.386Z,24.00
2017-09-20T07:50:25.918Z,20.00
2017-09-20T07:52:53.449Z,21.97
2017-09-20T07:55:21.008Z,21.90
2017-09-20T07:57:49.290Z,22.03
2017-09-20T08:00:17.201Z,22.90
2017-09-20T08:02:44.730Z,20.80
2017-09-20T08:05:12.264Z,21.50
2017-09-20T08:07:39.861Z,22.43
2017-09-20T08:10:07.442Z,21.17
2017-09-20T08:12:35.304Z,21.90
2017-09-20T08:15:02.839Z,20.60
2017-09-20T08:17:30.377Z,21.00
2017-09-20T08:19:57.933Z,20.77
2017-09-20T08:22:25.458Z,19.80
2017-09-20T08:24:53.306Z,21.23
2017-09-20T08:27:20.815Z,19.80
2017-09-20T08:29:48.340Z,19.17
2017-09-20T08:32:15.884Z,20.57
2017-09-20T08:34:43.402Z,20.07
2017-09-20T08:37:11.280Z,18.87
2017-09-20T08:39:39.567Z,19.13
2017-09-20T08:42:07.111Z,17.50
2017-09-20T08:44:35.440Z,18.97
2017-09-20T08:47:03.002Z,18.57
2017-09-20T08:49:30.820Z,21.47
2017-09-20T08:51:59.114Z,19.80
2017-09-20T08:54:26.659Z,21.70
2017-09-20T08:56:54.968Z,21.13
2017-09-20T08:59:22.498Z,21.40
2017-09-20T09:01:51.221Z,19.00
2017-09-20T09:04:18.746Z,19.30
2017-09-20T09:06:47.065Z,18.77
2017-09-20T09:09:14.620Z,20.63
2017-09-20T09:11:42.138Z,19.60
2017-09-20T09:14:10.795Z,21.73
2017-09-20T09:16:38.361Z,22.13
2017-09-20T09:19:05.907Z,21.10
2017-09-20T09:21:33.455Z,19.40
2017-09-20T09:24:01.741Z,20.63
2017-09-20T09:26:29.700Z,18.90
2017-09-20T09:28:57.258Z,19.90
2017-09-20T09:31:24.787Z,20.33
2017-09-20T09:33:53.116Z,18.27
2017-09-20T09:36:20.640Z,18.23
2017-09-20T09:38:48.438Z,19.30
2017-09-20T09:41:15.967Z,20.23
2017-09-20T09:43:43.491Z,19.00
2017-09-20T09:46:11.053Z,17.80
2017-09-20T09:48:38.577Z,17.47
2017-09-20T09:51:06.397Z,17.73
2017-09-20T09:53:34.690Z,18.33
2017-09-20T09:56:02.220Z,16.43
2017-09-20T09:58:29.780Z,17.00
2017-09-20T10:00:57.301Z,17.50
2017-09-20T10:03:25.172Z,18.37
2017-09-20T10:05:52.999Z,18.00
2017-09-20T10:08:20.531Z,18.53
2017-09-20T10:10:48.096Z,18.77
2017-09-20T10:13:15.652Z,17.30
2017-09-20T10:15:43.607Z,18.30
2017-09-20T10:18:11.151Z,18.83
2017-09-20T10:20:38.672Z,18.43
2017-09-20T10:23:06.256Z,16.70
2017-09-20T10:25:33.828Z,18.20
2017-09-20T10:28:01.718Z,17.63
2017-09-20T10:30:29.255Z,17.13
2017-09-20T10:32:56.834Z,19.17
2017-09-20T10:35:24.409Z,15.90
2017-09-20T10:37:51.923Z,16.23
2017-09-20T10:40:20.738Z,14.50
2017-09-20T10:42:48.284Z,14.17
2017-09-20T10:45:15.806Z,13.87
2017-09-20T10:47:44.128Z,11.00
2017-09-20T10:50:11.654Z,10.00
2017-09-20T10:52:39.563Z,11.70
2017-09-20T10:55:07.113Z,10.10
2017-09-20T10:57:34.624Z,9.30
2017-09-20T11:00:02.964Z,10.37
2017-09-20T11:02:30.485Z,8.90
2017-09-20T11:04:58.380Z,10.87
2017-09-20T11:07:25.903Z,8.77
2017-09-20T11:09:54.282Z,8.30
2017-09-20T11:12:21.841Z,8.33
2017-09-20T11:14:50.122Z,8.93
2017-09-20T11:17:18.678Z,9.03
2017-09-20T11:19:46.201Z,6.70
2017-09-20T11:22:13.761Z,7.70
2017-09-20T11:24:41.317Z,7.33
2017-09-20T11:27:08.833Z,7.80
2017-09-20T11:29:37.432Z,8.13
2017-09-20T11:32:04.949Z,8.07
2017-09-20T11:34:32.480Z,8.40
2017-09-20T11:37:00.027Z,8.13
2017-09-20T11:39:27.562Z,5.73
2017-09-20T11:41:56.136Z,5.90
2017-09-20T11:44:24.432Z,5.53
2017-09-20T11:46:52.722Z,6.30
2017-09-20T11:49:20.280Z,5.90
2017-09-20T11:51:47.804Z,5.27
2017-09-20T11:54:15.751Z,6.57
2017-09-20T11:56:43.288Z,5.67
2017-09-20T11:59:10.821Z,7.33
2017-09-20T12:01:39.127Z,7.63
2017-09-20T12:04:06.699Z,7.80
2017-09-20T12:06:34.526Z,5.70
2017-09-20T12:09:02.815Z,4.30
2017-09-20T12:11:30.345Z,4.53
2017-09-20T12:13:57.937Z,6.00
2017-09-20T12:16:25.475Z,5.77
2017-09-20T12:18:54.068Z,6.10
2017-09-20T12:21:22.354Z,6.00
2017-09-20T12:23:49.885Z,5.10
2017-09-20T12:26:17.433Z,3.93
2017-09-20T12:28:45.061Z,4.20
2017-09-20T12:31:12.922Z,5.43
2017-09-20T12:33:41.286Z,6.40
2017-09-20T12:36:08.979Z,5.00
2017-09-20T12:38:41.567Z,5.53
2017-09-20T12:41:09.281Z,5.50
2017-09-20T12:43:37.422Z,5.47
2017-09-20T12:46:05.997Z,5.80
2017-09-20T12:48:33.674Z,5.60
2017-09-20T12:53:38.201Z,4.10
2017-09-20T12:56:08.919Z,3.23
2017-09-20T12:58:36.523Z,3.70
2017-09-20T13:01:04.064Z,4.10
2017-09-20T13:03:31.609Z,4.20
2017-09-20T13:05:59.220Z,4.20
2017-09-20T13:08:29.246Z,4.03
2017-09-20T13:14:15.050Z,3.83
2017-09-20T13:17:11.572Z,5.53
2017-09-20T13:19:40.446Z,3.53
2017-09-20T13:22:09.173Z,3.57
2017-09-20T13:24:37.101Z,3.43
2017-09-20T13:27:04.913Z,3.93
2017-09-20T13:29:33.272Z,5.20
2017-09-20T13:32:02.473Z,4.23
2017-09-20T13:34:30.817Z,4.13
2017-09-20T13:36:59.020Z,4.23
2017-09-20T13:39:27.408Z,4.10
2017-09-20T13:44:57.582Z,2.50
2017-09-20T13:47:25.864Z,2.60
2017-09-20T13:49:59.490Z,2.83
2017-09-20T13:52:27.486Z,3.10
2017-09-20T13:57:55.752Z,2.60
2017-09-20T14:00:23.944Z,2.00
2017-09-20T14:02:52.862Z,2.70
2017-09-20T14:05:21.256Z,2.70
2017-09-20T14:07:49.889Z,2.20
2017-09-20T14:12:53.951Z,2.00
2017-09-20T14:15:27.865Z,1.90
2017-09-20T14:17:55.836Z,1.90
2017-09-20T14:20:24.242Z,1.83
2017-09-20T14:22:52.460Z,2.97
2017-09-20T14:28:31.074Z,1.60
2017-09-20T14:30:58.867Z,1.50
2017-09-20T14:33:27.724Z,1.40
2017-09-20T14:35:55.624Z,1.40
2017-09-20T14:38:24.582Z,1.50
2017-09-20T14:40:52.569Z,1.43
2017-09-20T14:43:20.348Z,2.40
2017-09-20T14:45:49.074Z,1.63
2017-09-20T14:48:18.425Z,2.50
2017-09-20T14:50:46.381Z,2.60
2017-09-20T14:53:15.635Z,2.60
2017-09-20T14:55:43.285Z,3.80
2017-09-20T14:58:11.216Z,3.10
2017-09-20T15:00:39.111Z,2.90
2017-09-20T15:03:06.776Z,3.17
2017-09-20T15:05:34.318Z,3.20
2017-09-20T15:08:01.898Z,4.07
2017-09-20T15:10:29.734Z,4.50
2017-09-20T15:12:57.269Z,3.80
2017-09-20T15:15:24.779Z,3.27
2017-09-20T15:17:52.370Z,3.27
2017-09-20T15:20:19.942Z,3.40
2017-09-20T15:22:47.776Z,2.87
2017-09-20T15:25:15.312Z,2.37
2017-09-20T15:27:42.839Z,2.70
2017-09-20T15:30:10.558Z,2.17
2017-09-20T15:32:38.086Z,2.83
2017-09-20T15:35:06.713Z,2.60
2017-09-20T15:37:34.225Z,2.80
2017-09-20T15:40:01.784Z,3.30
2017-09-20T15:42:30.097Z,2.60
2017-09-20T15:44:57.618Z,3.03
2017-09-20T15:47:26.199Z,2.83
2017-09-20T15:49:53.748Z,2.90
2017-09-20T15:52:21.276Z,3.00
2017-09-20T15:54:48.832Z,2.97
2017-09-20T15:57:16.376Z,3.13
2017-09-20T15:59:44.188Z,3.17
2017-09-20T16:02:11.719Z,3.30
2017-09-20T16:04:39.268Z,3.80
2017-09-20T16:07:06.816Z,4.27
2017-09-20T16:09:34.347Z,4.27
2017-09-20T16:12:02.963Z,3.73
2017-09-20T16:14:30.532Z,3.50
2017-09-20T16:16:58.068Z,4.20
2017-09-20T16:19:26.397Z,3.90
2017-09-20T16:21:54.705Z,3.27
2017-09-20T16:24:23.342Z,3.60
2017-09-20T16:26:50.913Z,2.70
2017-09-20T16:29:18.485Z,3.27
2017-09-20T16:31:46.071Z,3.50
2017-09-20T16:34:14.375Z,2.83
2017-09-20T16:36:42.354Z,3.50
2017-09-20T16:39:09.888Z,2.67
2017-09-20T16:41:38.199Z,2.70
2017-09-20T16:44:05.743Z,3.00
2017-09-20T16:46:33.273Z,2.93
2017-09-20T16:49:01.196Z,3.13
2017-09-20T16:51:28.737Z,3.47
2017-09-20T16:53:56.264Z,3.50
2017-09-20T16:56:24.628Z,3.17
2017-09-20T16:58:52.151Z,3.23
2017-09-20T17:01:20.036Z,2.90
2017-09-20T17:03:47.630Z,2.60
2017-09-20T17:06:15.157Z,2.80
2017-09-20T17:08:42.748Z,2.50
2017-09-20T17:11:10.278Z,2.80
2017-09-20T17:13:38.159Z,7.80
2017-09-20T17:16:05.705Z,3.10
2017-09-20T17:18:33.255Z,3.10
2017-09-20T17:21:00.805Z,3.80
2017-09-20T17:23:28.368Z,3.70
2017-09-20T17:25:56.210Z,3.73
2017-09-20T17:28:24.494Z,3.73
2017-09-20T17:30:52.789Z,4.37
2017-09-20T17:33:20.349Z,4.03
2017-09-20T17:35:47.921Z,4.13
2017-09-20T17:38:15.757Z,3.97
2017-09-20T17:40:44.035Z,4.20
2017-09-20T17:43:12.416Z,4.07
2017-09-20T17:45:39.986Z,4.13
2017-09-20T17:48:07.522Z,4.33
2017-09-20T17:50:36.164Z,4.13
2017-09-20T17:53:03.689Z,4.30
2017-09-20T17:55:32.063Z,5.50
2017-09-20T17:58:00.407Z,5.70
2017-09-20T18:00:28.704Z,6.23
2017-09-20T18:02:57.313Z,5.80
2017-09-20T18:05:24.879Z,6.60
2017-09-20T18:07:52.460Z,6.40
2017-09-20T18:10:20.041Z,6.93
2017-09-20T18:12:47.577Z,6.63
2017-09-20T18:15:15.530Z,7.30
2017-09-20T18:17:43.078Z,7.03
2017-09-20T18:20:10.614Z,7.63
2017-09-20T18:22:38.185Z,8.27
2017-09-20T18:25:05.874Z,8.97
2017-09-20T18:27:34.467Z,8.97
2017-09-20T18:30:02.141Z,7.70
2017-09-20T18:32:30.541Z,7.20
2017-09-20T18:34:58.112Z,7.83
2017-09-20T18:37:25.821Z,7.67
2017-09-20T18:39:53.748Z,9.43
2017-09-20T18:42:21.311Z,8.70
2017-09-20T18:44:48.862Z,7.90
2017-09-20T18:47:17.290Z,8.60
2017-09-20T18:49:44.908Z,8.50
2017-09-20T18:52:12.775Z,9.05
2017-09-20T18:54:41.197Z,8.80
2017-09-20T18:57:08.834Z,9.40
2017-09-20T18:59:36.431Z,8.77
2017-09-20T19:02:04.038Z,10.93
2017-09-20T19:04:32.246Z,10.40
2017-09-20T19:06:59.869Z,9.90
2017-09-20T19:09:27.466Z,10.47
2017-09-20T19:11:55.947Z,10.20
2017-09-20T19:14:23.526Z,10.20
2017-09-20T19:16:51.739Z,11.00
2017-09-20T19:19:19.272Z,8.63
2017-09-20T19:21:46.935Z,8.00
2017-09-20T19:24:14.569Z,9.13
2017-09-20T19:26:42.883Z,9.77
2017-09-20T19:29:10.839Z,8.77
2017-09-20T19:31:38.378Z,8.20
2017-09-20T19:34:06.935Z,8.60
2017-09-20T19:36:34.586Z,8.60
2017-09-20T19:39:02.138Z,8.10
2017-09-20T19:41:30.052Z,8.10
2017-09-20T19:43:57.654Z,8.77
2017-09-20T19:46:25.282Z,8.47
2017-09-20T19:48:53.676Z,9.57
2017-09-20T19:51:22.049Z,10.70
2017-09-20T19:53:49.898Z,9.63
2017-09-20T19:56:17.429Z,8.43
2017-09-20T19:58:45.001Z,8.77
2017-09-20T20:01:12.564Z,8.03
2017-09-20T20:03:40.139Z,9.07
2017-09-20T20:06:07.971Z,8.70
2017-09-20T20:08:35.522Z,7.13
2017-09-20T20:11:03.086Z,8.50
2017-09-20T20:13:30.640Z,8.57
2017-09-20T20:15:58.183Z,8.53
2017-09-20T20:18:26.044Z,8.70
2017-09-20T20:20:54.365Z,8.13
2017-09-20T20:23:21.959Z,8.40
2017-09-20T20:25:49.537Z,8.57
2017-09-20T20:28:17.877Z,9.00
2017-09-20T20:30:46.521Z,9.90
2017-09-20T20:33:14.104Z,9.87
2017-09-20T20:35:41.687Z,10.00
2017-09-20T20:38:09.238Z,10.10
2017-09-20T20:40:36.768Z,9.70
2017-09-20T20:43:04.672Z,11.20
2017-09-20T20:45:32.232Z,10.00
2017-09-20T20:47:59.752Z,9.00
2017-09-20T20:50:27.353Z,9.87
2017-09-20T20:52:54.893Z,8.80
2017-09-20T20:55:22.709Z,10.63
2017-09-20T20:57:51.060Z,10.13
2017-09-20T21:00:19.399Z,10.10
2017-09-20T21:02:46.959Z,9.43
2017-09-20T21:05:14.531Z,11.50
2017-09-20T21:07:42.409Z,10.40
2017-09-20T21:10:09.959Z,12.80
2017-09-20T21:12:41.474Z,10.90
2017-09-20T21:15:09.810Z,10.50
2017-09-20T21:17:37.358Z,11.30
2017-09-20T21:20:05.198Z,10.60
2017-09-20T21:22:33.475Z,11.30
2017-09-20T21:25:01.201Z,10.83
2017-09-20T21:27:28.763Z,9.40
2017-09-20T21:29:56.348Z,10.20
2017-09-20T21:32:24.203Z,8.53
2017-09-20T21:34:51.736Z,9.27
2017-09-20T21:37:19.633Z,9.43
2017-09-20T21:39:47.176Z,7.53
2017-09-20T21:42:14.723Z,7.90
2017-09-20T21:44:42.589Z,8.37
2017-09-20T21:47:10.099Z,8.80
2017-09-20T21:49:38.399Z,8.50
2017-09-20T21:52:05.934Z,8.07
2017-09-20T21:54:34.244Z,6.63
2017-09-20T21:57:02.094Z,7.00
2017-09-20T21:59:30.380Z,7.30
2017-09-20T22:01:57.897Z,7.53
2017-09-20T22:04:25.529Z,6.90
2017-09-20T22:06:53.154Z,6.53
2017-09-20T22:09:21.060Z,9.00
2017-09-20T22:11:48.621Z,8.80
2017-09-20T22:14:16.141Z,7.00
2017-09-20T22:16:55.738Z,7.80
2017-09-20T22:19:35.091Z,6.70
2017-09-20T22:22:14.460Z,6.50
2017-09-20T22:24:54.614Z,6.73
2017-09-20T22:27:27.882Z,6.33
2017-09-20T22:29:55.392Z,6.90
2017-09-20T22:32:23.832Z,8.27
2017-09-20T22:34:52.124Z,7.90
2017-09-20T22:37:20.528Z,6.87
2017-09-20T22:39:48.093Z,7.50
2017-09-20T22:42:15.615Z,8.60
2017-09-20T22:44:43.517Z,6.90
2017-09-20T22:47:11.070Z,7.20
2017-09-20T22:49:38.604Z,6.77
2017-09-20T22:52:06.173Z,8.50
2017-09-20T22:54:34.488Z,7.40
2017-09-20T22:57:02.352Z,6.70
2017-09-20T22:59:29.887Z,7.70
2017-09-20T23:01:57.409Z,7.10
2017-09-20T23:04:24.975Z,7.40
2017-09-20T23:06:52.500Z,7.30
2017-09-20T23:09:21.187Z,7.13
2017-09-20T23:11:48.879Z,8.20
2017-09-20T23:14:16.536Z,6.77
2017-09-20T23:16:44.111Z,7.00
2017-09-20T23:19:15.938Z,7.27
2017-09-20T23:21:44.099Z,7.07
2017-09-20T23:24:11.644Z,6.80
2017-09-20T23:26:39.163Z,7.57
2017-09-20T23:29:07.488Z,8.40
2017-09-20T23:31:35.038Z,7.20
2017-09-20T23:34:02.857Z,6.67
2017-09-20T23:36:30.380Z,7.00
2017-09-20T23:38:57.890Z,7.60
2017-09-20T23:41:25.442Z,7.50
2017-09-20T23:43:52.962Z,7.63
2017-09-20T23:46:20.778Z,8.00
2017-09-20T23:48:48.311Z,8.30
2017-09-20T23:51:15.840Z,8.53
2017-09-20T23:53:43.406Z,8.70
2017-09-20T23:56:10.907Z,7.30
2017-09-20T23:58:39.053Z,6.93
